.
WxDataArchive / Data Records for 2010-11-08
2010-11-07 November 2010 2010-11-09

Data Records for Monday, 08 November 2010

Time	Temp	Chill	HIndex	Humid	Dewpt	 Wind 	HiWind	WindDir	Rain 	Barom 
-----	----	-----	------	-----	-----	------	------	-------	-----	----- 
00:00	37.3	37.3	37.3	58	23.9	0	0	---	0.00	30.099 
00:05	37.2	37.2	37.2	57	23.4	0	0	---	0.00	30.099 
00:10	37.2	37.2	37.2	58	23.8	0	0	---	0.00	30.099 
00:15	37.2	37.2	37.2	58	23.8	0	1	270	0.00	30.096 
00:20	37.2	37.2	37.2	58	23.8	0	0	---	0.00	30.096 
00:25	37.2	37.2	37.2	58	23.8	0	0	---	0.00	30.096 
00:30	37.2	37.2	37.2	58	23.8	0	1	270	0.00	30.097 
00:35	37.3	37.3	37.3	58	23.9	0	1	270	0.00	30.097 
00:40	37.6	37.6	37.6	57	23.8	0	1	270	0.00	30.097 
00:45	38.0	38.0	38.0	56	23.7	0	1	270	0.00	30.096 
00:50	38.3	38.3	38.3	56	24.0	0	0	---	0.00	30.096 
00:55	38.5	38.5	38.5	55	23.8	0	0	---	0.00	30.096 
01:00	38.3	38.3	38.3	55	23.6	0	0	---	0.00	30.096 
01:05	38.2	38.2	38.2	55	23.5	0	0	---	0.00	30.096 
01:10	38.2	38.2	38.2	55	23.5	0	0	---	0.00	30.096 
01:15	38.0	38.0	38.0	55	23.3	0	0	---	0.00	30.093 
01:20	37.9	37.9	37.9	55	23.2	0	0	---	0.00	30.093 
01:25	37.8	37.8	37.8	56	23.5	0	0	---	0.00	30.093 
01:30	37.5	37.5	37.5	56	23.2	0	0	---	0.00	30.091 
01:35	37.3	37.3	37.3	58	23.9	0	0	---	0.00	30.091 
01:40	37.0	37.0	37.0	58	23.6	0	0	---	0.00	30.091 
01:45	36.8	36.8	36.8	58	23.4	0	0	---	0.00	30.080 
01:50	36.5	36.5	36.5	60	24.0	0	0	---	0.00	30.080 
01:55	36.5	36.5	36.5	60	24.0	0	0	---	0.00	30.080 
02:00	36.6	36.6	36.6	59	23.6	0	1	270	0.00	30.078 
02:05	36.9	36.9	36.9	59	23.9	0	1	270	0.00	30.078 
02:10	37.0	37.0	37.0	58	23.6	0	0	---	0.00	30.078 
02:15	37.2	37.2	37.2	58	23.8	0	0	---	0.00	30.078 
02:20	37.0	37.0	37.0	58	23.6	0	0	---	0.00	30.078 
02:25	36.9	36.9	36.9	58	23.5	0	0	---	0.00	30.078 
02:30	36.8	36.8	36.8	58	23.4	0	0	---	0.00	30.077 
02:35	36.5	36.5	36.5	59	23.6	0	0	---	0.00	30.077 
02:40	36.2	36.2	36.2	60	23.7	0	0	---	0.00	30.077 
02:45	36.0	36.0	36.0	60	23.5	0	0	---	0.00	30.077 
02:50	35.8	35.8	35.8	60	23.3	0	0	---	0.00	30.077 
02:55	35.8	35.8	35.8	60	23.3	0	0	---	0.00	30.077 
03:00	35.9	35.9	35.9	61	23.8	0	0	---	0.00	30.074 
03:05	35.9	35.9	35.9	61	23.8	0	0	---	0.00	30.074 
03:10	35.9	35.9	35.9	61	23.8	0	0	---	0.00	30.074 
03:15	35.6	35.6	35.6	61	23.5	0	0	---	0.00	30.073 
03:20	35.5	35.5	35.5	62	23.8	0	0	---	0.00	30.073 
03:25	35.2	35.2	35.2	63	23.9	0	0	---	0.00	30.073 
03:30	34.9	34.9	34.9	63	23.6	0	0	---	0.00	30.072 
03:35	34.7	34.7	34.7	64	23.8	0	0	---	0.00	30.072 
03:40	34.4	34.4	34.4	64	23.5	0	0	---	0.00	30.072 
03:45	34.3	34.3	34.3	64	23.4	0	0	---	0.00	30.072 
03:50	34.0	34.0	34.0	64	23.1	0	0	---	0.00	30.072 
03:55	33.7	33.7	33.7	64	22.8	0	0	---	0.00	30.072 
04:00	33.5	33.5	33.5	65	23.0	0	0	---	0.00	30.068 
04:05	33.2	33.2	33.2	66	23.1	0	0	---	0.00	30.068 
04:10	33.1	33.1	33.1	67	23.4	0	0	---	0.00	30.068 
04:15	32.9	32.9	32.9	67	23.2	0	0	---	0.00	30.070 
04:20	32.7	32.7	32.7	68	23.3	0	0	---	0.00	30.070 
04:25	32.5	32.5	32.5	68	23.1	0	0	---	0.00	30.070 
04:30	32.4	32.4	32.4	69	23.4	0	0	---	0.00	30.069 
04:35	32.4	32.4	32.4	69	23.4	0	0	---	0.00	30.069 
04:40	32.4	32.4	32.4	69	23.4	0	0	---	0.00	30.069 
04:45	32.2	32.2	32.2	70	23.5	0	0	---	0.00	30.066 
04:50	32.2	32.2	32.2	70	23.5	0	0	---	0.00	30.066 
04:55	32.1	32.1	32.1	70	23.4	0	0	---	0.00	30.066 
05:00	31.9	31.9	31.9	70	23.2	0	0	---	0.00	30.067 
05:05	31.9	31.9	31.9	71	23.6	0	0	---	0.00	30.067 
05:10	31.9	31.9	31.9	71	23.6	0	0	---	0.00	30.067 
05:15	31.8	31.8	31.8	71	23.5	0	0	---	0.00	30.071 
05:20	31.6	31.6	31.6	71	23.3	0	0	---	0.00	30.071 
05:25	31.5	31.5	31.5	72	23.5	0	0	---	0.00	30.071 
05:30	31.5	31.5	31.5	72	23.5	0	0	---	0.00	30.072 
05:35	31.3	31.3	31.3	72	23.3	0	0	---	0.00	30.072 
05:40	31.3	31.3	31.3	73	23.7	0	0	---	0.00	30.072 
05:45	31.3	31.3	31.3	73	23.7	0	0	---	0.00	30.072 
05:50	31.2	31.2	31.2	73	23.6	0	0	---	0.00	30.072 
05:55	31.0	31.0	31.0	73	23.4	0	0	---	0.00	30.072 
06:00	31.0	31.0	31.0	74	23.7	0	0	---	0.00	30.070 
06:05	30.9	30.9	30.9	74	23.6	0	0	---	0.00	30.070 
06:10	30.9	30.9	30.9	75	23.9	0	0	---	0.00	30.070 
06:15	31.0	31.0	31.0	74	23.7	0	0	---	0.00	30.070 
06:20	31.0	31.0	31.0	75	24.0	0	0	---	0.00	30.070 
06:25	31.0	31.0	31.0	75	24.0	0	0	---	0.00	30.070 
06:30	31.2	31.2	31.2	75	24.2	0	0	---	0.00	30.072 
06:35	31.2	31.2	31.2	75	24.2	0	0	---	0.00	30.072 
06:40	31.2	31.2	31.2	75	24.2	0	0	---	0.00	30.072 
06:45	31.6	31.6	31.6	75	24.6	0	0	---	0.00	30.066 
06:50	32.2	32.2	32.2	74	24.9	0	0	---	0.00	30.066 
06:55	32.9	32.9	32.9	73	25.2	0	1	270	0.00	30.066 
07:00	33.7	33.7	33.7	71	25.3	0	0	---	0.00	30.064 
07:05	34.1	34.1	34.1	70	25.4	0	0	---	0.00	30.064 
07:10	34.4	34.4	34.4	69	25.3	0	0	---	0.00	30.064 
07:15	34.4	34.4	34.4	68	24.9	0	0	---	0.00	30.067 
07:20	34.4	34.4	34.4	68	24.9	0	0	---	0.00	30.067 
07:25	34.3	34.3	34.3	68	24.9	0	0	---	0.00	30.067 
07:30	34.1	34.1	34.1	68	24.7	0	0	---	0.00	30.064 
07:35	34.0	34.0	34.0	68	24.6	0	0	---	0.00	30.064 
07:40	33.8	33.8	33.8	69	24.7	0	0	---	0.00	30.064 
07:45	33.7	33.7	33.7	69	24.6	0	0	---	0.00	30.072 
07:50	33.8	33.8	33.8	70	25.1	0	0	---	0.00	30.072 
07:55	33.8	33.8	33.8	71	25.4	0	0	---	0.00	30.072 
08:00	34.1	34.1	34.1	71	25.7	0	0	---	0.00	30.074 
08:05	34.6	34.6	34.6	70	25.8	0	0	---	0.00	30.074 
08:10	35.0	35.0	35.0	70	26.2	0	0	---	0.00	30.074 
08:15	35.6	35.6	35.6	69	26.4	0	0	---	0.00	30.077 
08:20	36.3	36.3	36.3	68	26.8	0	0	---	0.00	30.077 
08:25	37.0	37.0	37.0	66	26.7	0	0	---	0.00	30.077 
08:30	38.2	38.2	38.2	64	27.1	0	0	---	0.00	30.079 
08:35	39.2	39.2	39.2	61	26.9	0	1	270	0.00	30.079 
08:40	40.2	40.2	40.2	59	27.0	0	1	270	0.00	30.079 
08:45	41.1	41.1	41.1	57	27.0	0	1	270	0.00	30.075 
08:50	41.8	41.8	41.8	57	27.7	0	0	---	0.00	30.075 
08:55	42.3	42.3	42.3	56	27.7	0	2	270	0.00	30.075 
09:00	42.9	42.9	42.9	54	27.4	0	0	---	0.00	30.076 
09:05	43.5	43.5	43.5	53	27.5	0	0	---	0.00	30.076 
09:10	44.1	44.1	44.1	52	27.6	0	2	270	0.00	30.076 
09:15	44.6	44.6	44.6	51	27.6	0	1	270	0.00	30.070 
09:20	45.1	45.1	45.1	50	27.6	0	2	270	0.00	30.070 
09:25	45.5	45.5	45.5	50	28.0	0	2	270	0.00	30.070 
09:30	46.0	46.0	46.0	49	27.9	1	2	270	0.00	30.067 
09:35	46.2	46.2	46.2	48	27.6	1	2	270	0.00	30.067 
09:40	46.8	46.8	46.8	48	28.2	0	1	270	0.00	30.067 
09:45	47.6	47.6	47.6	47	28.4	0	2	270	0.00	30.064 
09:50	48.0	48.0	48.0	46	28.2	0	2	270	0.00	30.064 
09:55	48.5	48.5	48.5	46	28.7	0	2	270	0.00	30.064 
10:00	49.1	49.1	49.1	44	28.1	1	3	270	0.00	30.062 
10:05	49.5	49.5	49.5	43	27.9	1	2	270	0.00	30.062 
10:10	49.8	49.8	49.8	44	28.8	0	2	270	0.00	30.062 
10:15	50.2	50.2	50.2	43	28.6	1	3	270	0.00	30.060 
10:20	50.5	50.5	50.5	43	28.8	0	1	248	0.00	30.060 
10:25	50.8	50.8	50.8	42	28.5	0	2	248	0.00	30.060 
10:30	51.1	51.1	51.1	42	28.8	0	2	248	0.00	30.061 
10:35	51.6	51.6	51.6	42	29.3	0	2	248	0.00	30.061 
10:40	52.2	52.2	52.2	42	29.8	0	2	248	0.00	30.061 
10:45	52.8	52.8	52.8	41	29.8	0	2	248	0.00	30.055 
10:50	53.3	53.3	53.3	40	29.6	0	1	248	0.00	30.055 
10:55	53.6	53.6	53.6	39	29.3	0	1	248	0.00	30.055 
11:00	53.8	53.8	53.8	39	29.4	0	3	248	0.00	30.051 
11:05	54.1	54.1	54.1	38	29.1	0	1	248	0.00	30.051 
11:10	54.4	54.4	54.4	39	30.0	0	3	90	0.00	30.051 
11:15	54.8	54.8	54.8	38	29.7	0	1	90	0.00	30.050 
11:20	55.1	55.1	55.1	37	29.3	0	1	90	0.00	30.050 
11:25	55.7	55.7	55.7	37	29.8	0	1	90	0.00	30.050 
11:30	56.2	56.2	56.2	37	30.3	0	1	90	0.00	30.047 
11:35	56.5	56.5	56.5	36	29.9	0	1	90	0.00	30.047 
11:40	56.7	56.7	56.7	36	30.0	0	1	90	0.00	30.047 
11:45	57.0	57.0	57.0	36	30.3	0	1	90	0.00	30.045 
11:50	57.3	57.3	57.3	36	30.6	0	1	90	0.00	30.045 
11:55	57.6	57.6	57.6	35	30.2	0	2	90	0.00	30.045 
12:00	57.8	57.8	57.8	34	29.6	0	2	90	0.00	30.044 
12:05	58.0	58.0	58.0	35	30.5	0	2	90	0.00	30.044 
12:10	58.4	58.4	58.4	35	30.9	0	1	90	0.00	30.044 
12:15	59.0	59.0	59.0	33	29.9	0	1	90	0.00	30.034 
12:20	59.3	59.3	59.3	33	30.2	0	1	90	0.00	30.034 
12:25	59.6	59.6	59.6	34	31.2	0	2	90	0.00	30.034 
12:30	59.8	59.8	59.8	32	29.9	0	1	90	0.00	30.031 
12:35	60.1	60.1	60.1	33	30.9	0	2	90	0.00	30.031 
12:40	60.4	60.4	60.4	32	30.4	0	2	90	0.00	30.031 
12:45	60.7	60.7	60.7	32	30.7	0	2	90	0.00	30.023 
12:50	61.2	61.2	61.2	31	30.3	0	1	90	0.00	30.023 
12:55	61.3	61.3	61.3	30	29.6	0	3	90	0.00	30.023 
13:00	61.6	61.6	61.6	31	30.7	0	1	90	0.00	30.014 
13:05	61.8	61.8	61.8	31	30.8	0	3	90	0.00	30.014 
13:10	62.0	62.0	62.0	31	31.0	1	4	90	0.00	30.014 
13:15	62.0	62.0	62.0	31	31.0	0	1	90	0.00	30.011 
13:20	62.1	62.1	62.1	31	31.1	0	1	90	0.00	30.011 
13:25	62.6	62.6	62.6	31	31.5	0	1	90	0.00	30.011 
13:30	63.1	63.1	63.1	30	31.2	0	1	90	0.00	30.003 
13:35	63.2	63.2	63.2	29	30.4	1	3	90	0.00	30.003 
13:40	63.2	63.2	63.2	28	29.6	0	1	90	0.00	30.003 
13:45	63.2	63.2	63.2	30	31.3	0	1	90	0.00	29.993 
13:50	63.5	63.5	63.5	29	30.7	0	4	90	0.00	29.993 
13:55	63.7	63.7	63.7	28	30.0	0	3	90	0.00	29.993 
14:00	63.7	63.7	63.7	29	30.8	0	1	90	0.00	29.991 
14:05	63.7	63.7	63.7	29	30.8	0	2	90	0.00	29.991 
14:10	63.9	63.9	63.9	28	30.2	0	1	90	0.00	29.991 
14:15	64.0	64.0	64.0	28	30.2	0	2	90	0.00	29.985 
14:20	64.0	64.0	64.0	28	30.2	1	5	112	0.00	29.985 
14:25	64.2	64.2	64.2	28	30.4	0	2	112	0.00	29.985 
14:30	64.3	64.3	64.3	29	31.4	0	1	315	0.00	29.979 
14:35	64.8	64.8	64.8	28	30.9	0	3	225	0.00	29.979 
14:40	65.0	65.0	65.0	28	31.1	1	2	225	0.00	29.979 
14:45	64.8	64.8	64.8	28	30.9	0	2	225	0.00	29.977 
14:50	65.2	65.2	65.2	28	31.3	1	2	225	0.00	29.977 
14:55	65.3	65.3	65.3	28	31.4	0	2	225	0.00	29.977 
15:00	65.6	65.6	65.6	28	31.6	0	2	225	0.00	29.974 
15:05	65.6	65.6	65.6	27	30.7	0	2	225	0.00	29.974 
15:10	65.8	65.8	65.8	27	30.9	0	2	225	0.00	29.974 
15:15	66.3	66.3	66.3	28	32.2	0	2	225	0.00	29.977 
15:20	66.9	66.9	66.9	27	31.8	0	2	225	0.00	29.977 
15:25	66.9	66.9	66.9	27	31.8	0	3	135	0.00	29.977 
15:30	67.1	67.1	67.1	27	32.0	1	3	248	0.00	29.976 
15:35	67.3	67.3	67.3	27	32.2	0	2	248	0.00	29.976 
15:40	67.3	67.3	67.3	27	32.2	0	2	248	0.00	29.976 
15:45	67.3	67.3	67.3	27	32.2	0	3	248	0.00	29.975 
15:50	67.1	67.1	67.1	27	32.0	0	2	248	0.00	29.975 
15:55	67.1	67.1	67.1	27	32.0	0	2	248	0.00	29.975 
16:00	67.3	67.3	67.3	26	31.2	0	3	248	0.00	29.974 
16:05	67.1	67.1	67.1	26	31.1	0	1	248	0.00	29.974 
16:10	66.9	66.9	66.9	27	31.8	0	3	248	0.00	29.974 
16:15	66.8	66.8	66.8	27	31.7	0	3	248	0.00	29.969 
16:20	66.6	66.6	66.6	28	32.5	0	1	248	0.00	29.969 
16:25	66.3	66.3	66.3	28	32.2	0	1	248	0.00	29.969 
16:30	66.1	66.1	66.1	28	32.0	0	1	248	0.00	29.965 
16:35	65.8	65.8	65.8	28	31.8	0	0	---	0.00	29.965 
16:40	65.5	65.5	65.5	28	31.5	0	1	248	0.00	29.965 
16:45	65.3	65.3	65.3	27	30.5	0	0	---	0.00	29.967 
16:50	64.8	64.8	64.8	28	30.9	0	0	---	0.00	29.967 
16:55	64.5	64.5	64.5	28	30.7	0	0	---	0.00	29.967 
17:00	63.9	63.9	63.9	29	31.0	0	0	---	0.00	29.965 
17:05	63.4	63.4	63.4	30	31.4	0	0	---	0.00	29.965 
17:10	62.9	62.9	62.9	31	31.8	0	0	---	0.00	29.965 
17:15	62.1	62.1	62.1	31	31.1	0	0	---	0.00	29.967 
17:20	61.5	61.5	61.5	34	32.9	0	0	---	0.00	29.967 
17:25	60.7	60.7	60.7	34	32.2	0	0	---	0.00	29.967 
17:30	60.1	60.1	60.1	35	32.4	0	0	---	0.00	29.969 
17:35	59.3	59.3	59.3	36	32.4	0	0	---	0.00	29.969 
17:40	58.4	58.4	58.4	37	32.2	0	0	---	0.00	29.969 
17:45	57.6	57.6	57.6	39	32.8	0	0	---	0.00	29.972 
17:50	56.7	56.7	56.7	39	32.0	0	0	---	0.00	29.972 
17:55	56.0	56.0	56.0	40	32.0	0	0	---	0.00	29.972 
18:00	55.3	55.3	55.3	41	32.0	0	0	---	0.00	29.975 
18:05	54.7	54.7	54.7	42	32.1	0	0	---	0.00	29.975 
18:10	53.9	53.9	53.9	44	32.5	0	0	---	0.00	29.975 
18:15	53.3	53.3	53.3	45	32.5	0	0	---	0.00	29.974 
18:20	52.8	52.8	52.8	47	33.1	0	0	---	0.00	29.974 
18:25	52.2	52.2	52.2	48	33.1	0	0	---	0.00	29.974 
18:30	51.6	51.6	51.6	49	33.1	0	0	---	0.00	29.980 
18:35	51.0	51.0	51.0	50	33.0	0	0	---	0.00	29.980 
18:40	50.4	50.4	50.4	50	32.5	0	0	---	0.00	29.980 
18:45	49.9	49.9	49.9	51	32.5	0	0	---	0.00	29.986 
18:50	49.5	49.5	49.5	53	33.1	0	0	---	0.00	29.986 
18:55	48.9	48.9	48.9	54	33.0	0	0	---	0.00	29.986 
19:00	48.5	48.5	48.5	54	32.6	0	0	---	0.00	29.987 
19:05	48.0	48.0	48.0	56	33.1	0	0	---	0.00	29.987 
19:10	47.7	47.7	47.7	56	32.8	0	0	---	0.00	29.987 
19:15	47.3	47.3	47.3	58	33.3	0	0	---	0.00	29.986 
19:20	47.0	47.0	47.0	58	33.0	0	0	---	0.00	29.986 
19:25	46.8	46.8	46.8	59	33.2	0	0	---	0.00	29.986 
19:30	46.4	46.4	46.4	59	32.9	0	0	---	0.00	29.991 
19:35	46.1	46.1	46.1	61	33.4	0	0	---	0.00	29.991 
19:40	45.7	45.7	45.7	62	33.4	0	0	---	0.00	29.991 
19:45	45.5	45.5	45.5	62	33.2	0	0	---	0.00	29.988 
19:50	45.2	45.2	45.2	62	33.0	0	0	---	0.00	29.988 
19:55	44.9	44.9	44.9	62	32.7	0	0	---	0.00	29.988 
20:00	44.6	44.6	44.6	63	32.8	0	0	---	0.00	29.984 
20:05	44.3	44.3	44.3	64	32.9	0	0	---	0.00	29.984 
20:10	44.2	44.2	44.2	64	32.8	0	0	---	0.00	29.984 
20:15	43.9	43.9	43.9	64	32.5	0	0	---	0.00	29.972 
20:20	43.6	43.6	43.6	64	32.2	0	0	---	0.00	29.972 
20:25	43.5	43.5	43.5	65	32.5	0	0	---	0.00	29.972 
20:30	43.3	43.3	43.3	65	32.3	0	0	---	0.00	29.973 
20:35	43.1	43.1	43.1	65	32.1	0	0	---	0.00	29.973 
20:40	42.8	42.8	42.8	66	32.2	0	0	---	0.00	29.973 
20:45	42.8	42.8	42.8	65	31.9	0	0	---	0.00	29.977 
20:50	42.5	42.5	42.5	66	32.0	0	0	---	0.00	29.977 
20:55	42.3	42.3	42.3	66	31.8	0	0	---	0.00	29.977 
21:00	42.2	42.2	42.2	66	31.7	0	0	---	0.00	29.985 
21:05	42.1	42.1	42.1	66	31.6	0	0	---	0.00	29.985 
21:10	42.1	42.1	42.1	66	31.6	0	0	---	0.00	29.985 
21:15	41.8	41.8	41.8	67	31.7	0	0	---	0.00	29.982 
21:20	41.6	41.6	41.6	67	31.5	0	0	---	0.00	29.982 
21:25	41.6	41.6	41.6	68	31.8	0	0	---	0.00	29.982 
21:30	41.6	41.6	41.6	68	31.8	0	0	---	0.00	29.983 
21:35	41.5	41.5	41.5	68	31.7	0	0	---	0.00	29.983 
21:40	41.2	41.2	41.2	68	31.5	0	0	---	0.00	29.983 
21:45	41.1	41.1	41.1	69	31.7	0	0	---	0.00	29.987 
21:50	40.8	40.8	40.8	69	31.4	0	0	---	0.00	29.987 
21:55	40.6	40.6	40.6	70	31.6	0	0	---	0.00	29.987 
22:00	40.5	40.5	40.5	71	31.8	0	0	---	0.00	29.996 
22:05	40.2	40.2	40.2	71	31.6	0	0	---	0.00	29.996 
22:10	40.1	40.1	40.1	71	31.5	0	0	---	0.00	29.996 
22:15	39.8	39.8	39.8	72	31.5	0	0	---	0.00	29.995 
22:20	39.5	39.5	39.5	73	31.6	0	0	---	0.00	29.995 
22:25	39.2	39.2	39.2	73	31.3	0	0	---	0.00	29.995 
22:30	38.9	38.9	38.9	74	31.3	0	0	---	0.00	29.999 
22:35	38.8	38.8	38.8	75	31.6	0	0	---	0.00	29.999 
22:40	38.6	38.6	38.6	75	31.4	0	0	---	0.00	29.999 
22:45	38.5	38.5	38.5	75	31.3	0	0	---	0.00	29.999 
22:50	38.3	38.3	38.3	75	31.1	0	0	---	0.00	29.999 
22:55	38.3	38.3	38.3	76	31.4	0	0	---	0.00	29.999 
23:00	38.3	38.3	38.3	75	31.1	0	0	---	0.00	30.004 
23:05	38.2	38.2	38.2	75	31.0	0	0	---	0.00	30.004 
23:10	38.2	38.2	38.2	75	31.0	0	0	---	0.00	30.004 
23:15	38.0	38.0	38.0	75	30.8	0	0	---	0.00	29.999 
23:20	38.0	38.0	38.0	74	30.5	0	0	---	0.00	29.999 
23:25	38.0	38.0	38.0	74	30.5	0	0	---	0.00	29.999 
23:30	37.9	37.9	37.9	74	30.4	0	0	---	0.00	29.997 
23:35	37.8	37.8	37.8	74	30.3	0	0	---	0.00	29.997 
23:40	37.6	37.6	37.6	75	30.4	0	0	---	0.00	29.997 
23:45	37.6	37.6	37.6	75	30.4	0	0	---	0.00	29.995 
23:50	37.6	37.6	37.6	75	30.4	0	0	---	0.00	29.995 
23:55	37.5	37.5	37.5	75	30.3	0	0	---	0.00	29.995 

CoCoRaHS
IN-AL-39
A2 Web Hosting
Creative Commons License
GoDaddy
search engine by freefind advanced

loaded 2018-11-16 00:35:32 • last modified 2010-11-18 10:43:29
Privacy PolicyDisclaimer
• wx.awcolley.com is powered by PmWiki v.2002016 •
• all content (unless otherwise noted) © 2018 A W Colley